Aeroporto :
LOGIN :

Iscrizione | Disclaimer

   EN    FR    IT 

 










Sommario :    VFR   VFR Marginale   IFR   IFR Intensivo   IFR Molto Intensivo
Visibilità : 
Base nubi : 
>= 8 km
>= 3000ft
5 / 8 km
1000 / 3000 ft
1500m / 5 km
500 / 1000 ft
800 / 1500m
200 / 500 ft
< 800m
< 200 ft
Simboli :   Temporali  Nebbia  Neve Forte  Precipitazioni Forti  Vento > 20 kt
SIGMETs :   Varie  Temporali  Ghiacco  Turbolenza  Onda orograficha  Ceneri Vulcaniche






- Altitudine del aeroporto : 436 ft
- Codice IATA : BTS


LZIB - Bratislava

ULTIMO METAR :
  • 190430Z 34002KT CAVOK 21/15 Q1019 NOSIG

METARs OBSOLETI :
  • 190400Z VRB01KT CAVOK 20/15 Q1019 NOSIG
  • 190330Z VRB01KT CAVOK 20/15 Q1020 NOSIG
  • 190300Z VRB01KT CAVOK 20/15 Q1019 NOSIG
  • 190230Z 05002KT CAVOK 20/15 Q1019 NOSIG
  • 190200Z 35004KT CAVOK 21/15 Q1019 NOSIG
  • 190130Z 35002KT CAVOK 21/15 Q1019 NOSIG
  • 190100Z 35002KT CAVOK 21/15 Q1019 NOSIG
  • 190030Z VRB02KT CAVOK 21/15 Q1019 NOSIG
  • 190000Z VRB01KT CAVOK 22/15 Q1019 NOSIG

TAF TAF LZIB
Valido dal 19 a 00 ore il 20 a 00 ore UTC


182315Z 1900/2000 03006KT CAVOK
BECMG 1920/1922 27008KT



MetMap, La meteo Aeronautica in un colpo d'occhio ! - Copyright ORBIFLY Dicembre 2007 - Disclaimer

ORBIFLY MET'MAP TEAM :

Programmazione e sviluppo : Alexandra Zaïnal
Concezione : Baudouin d'Aumeries
Supporto tecnico e logistico : Manuel Goepfert
Aiuto : Marc-Olivier Méhu
Aiuto per la traduzione : Arnaldo La Scala




FONTI E CREDITI :

   NOAA